createdAt,value
2023-05-10T00:00:05.936Z,6.76
2023-05-10T00:03:08.893Z,6.77
2023-05-10T00:06:11.796Z,6.88
2023-05-10T00:09:14.988Z,6.90
2023-05-10T00:12:17.644Z,6.97
2023-05-10T00:15:20.304Z,6.96
2023-05-10T00:18:22.991Z,7.05
2023-05-10T00:21:25.647Z,7.05
2023-05-10T00:24:28.305Z,7.23
2023-05-10T00:27:31.048Z,7.32
2023-05-10T00:30:33.687Z,7.39
2023-05-10T00:33:36.260Z,7.41
2023-05-10T00:36:38.867Z,7.52
2023-05-10T00:39:41.528Z,7.50
2023-05-10T00:42:47.173Z,7.45
2023-05-10T00:45:49.998Z,7.49
2023-05-10T00:48:53.118Z,7.45
2023-05-10T00:51:55.942Z,7.37
2023-05-10T00:54:58.718Z,7.34
2023-05-10T00:58:01.562Z,7.39
2023-05-10T01:01:04.288Z,7.52
2023-05-10T01:04:07.115Z,7.55
2023-05-10T01:07:09.735Z,7.56
2023-05-10T01:10:12.959Z,7.60
2023-05-10T01:13:21.333Z,7.62
2023-05-10T01:16:25.476Z,7.63
2023-05-10T01:19:29.923Z,7.65
2023-05-10T01:23:18.706Z,7.55
2023-05-10T01:26:27.687Z,7.64
2023-05-10T01:30:14.689Z,7.68
2023-05-10T01:33:24.682Z,7.61
2023-05-10T01:36:41.615Z,7.51
2023-05-10T01:39:51.540Z,7.52
2023-05-10T01:42:56.622Z,7.58
2023-05-10T01:46:11.743Z,7.65
2023-05-10T01:49:27.745Z,7.76
2023-05-10T01:52:43.386Z,7.95
2023-05-10T01:55:48.129Z,8.12
2023-05-10T01:58:51.176Z,8.31
2023-05-10T02:01:54.346Z,8.33
2023-05-10T02:04:58.549Z,8.39
2023-05-10T02:08:02.499Z,8.36
2023-05-10T02:11:06.692Z,8.36
2023-05-10T02:14:10.991Z,8.35
2023-05-10T02:17:14.196Z,8.31
2023-05-10T02:20:18.121Z,8.29
2023-05-10T02:23:21.539Z,8.25
2023-05-10T02:26:25.217Z,8.18
2023-05-10T02:29:28.423Z,8.12
2023-05-10T02:32:31.400Z,8.08
2023-05-10T02:35:34.734Z,8.01
2023-05-10T02:38:37.965Z,7.97
2023-05-10T02:41:42.594Z,7.85
2023-05-10T02:44:48.506Z,7.80
2023-05-10T02:47:51.216Z,7.72
2023-05-10T02:50:54.351Z,7.62
2023-05-10T02:53:57.990Z,7.57
2023-05-10T02:57:02.513Z,7.52
2023-05-10T03:00:06.117Z,7.53
2023-05-10T03:03:09.672Z,7.50
2023-05-10T03:06:12.528Z,7.44
2023-05-10T03:09:16.833Z,7.37
2023-05-10T03:12:58.304Z,7.21
2023-05-10T03:16:13.857Z,7.12
2023-05-10T03:19:26.085Z,7.07
2023-05-10T03:22:53.407Z,7.07
2023-05-10T03:25:56.476Z,7.11
2023-05-10T03:29:00.254Z,7.15
2023-05-10T03:32:03.104Z,7.21
2023-05-10T03:35:13.563Z,7.28
2023-05-10T03:38:16.228Z,7.31
2023-05-10T03:41:18.931Z,7.34
2023-05-10T03:44:21.631Z,7.35
2023-05-10T03:47:24.463Z,7.38
2023-05-10T03:50:27.560Z,7.42
2023-05-10T03:53:30.428Z,7.47
2023-05-10T03:56:33.708Z,7.58
2023-05-10T03:59:37.584Z,7.78
2023-05-10T04:02:40.312Z,8.06
2023-05-10T04:05:43.112Z,8.22
2023-05-10T04:08:45.887Z,8.35
2023-05-10T04:11:48.638Z,8.39
2023-05-10T04:14:52.261Z,8.49
2023-05-10T04:17:54.910Z,8.58
2023-05-10T04:20:57.510Z,8.63
2023-05-10T04:24:00.211Z,8.64
2023-05-10T04:27:03.075Z,8.68
2023-05-10T04:30:06.519Z,8.69
2023-05-10T04:33:09.338Z,8.77
2023-05-10T04:36:12.114Z,8.86
2023-05-10T04:39:17.897Z,8.94
2023-05-10T04:42:20.634Z,9.03
2023-05-10T04:45:23.478Z,9.08
2023-05-10T04:48:26.190Z,9.14
2023-05-10T04:51:28.850Z,9.27
2023-05-10T04:54:31.493Z,9.36
2023-05-10T04:57:34.169Z,9.43
2023-05-10T05:00:36.824Z,9.50
2023-05-10T05:03:39.667Z,9.59
2023-05-10T05:06:42.476Z,9.67
2023-05-10T05:09:48.374Z,9.71
2023-05-10T05:12:51.134Z,9.81
2023-05-10T05:15:54.607Z,9.90
2023-05-10T05:19:00.919Z,9.90
2023-05-10T05:22:03.560Z,9.92
2023-05-10T05:25:07.138Z,10.19
2023-05-10T05:28:09.829Z,10.31
2023-05-10T05:31:15.953Z,10.34
2023-05-10T05:34:18.951Z,10.43
2023-05-10T05:37:25.651Z,10.54
2023-05-10T05:40:28.308Z,10.68
2023-05-10T05:43:31.179Z,10.73
2023-05-10T05:46:33.916Z,10.71
2023-05-10T05:49:36.757Z,10.97
2023-05-10T05:52:39.498Z,11.07
2023-05-10T05:55:42.208Z,11.09
2023-05-10T05:58:45.971Z,11.26
2023-05-10T06:01:48.970Z,11.38
2023-05-10T06:04:51.982Z,11.35
2023-05-10T06:07:54.679Z,11.44
2023-05-10T06:10:59.785Z,11.63
2023-05-10T06:14:03.136Z,11.66
2023-05-10T06:17:07.977Z,11.73
2023-05-10T06:20:11.180Z,11.91
2023-05-10T06:23:13.836Z,12.16
2023-05-10T06:26:16.540Z,12.23
2023-05-10T06:29:19.283Z,12.39
2023-05-10T06:32:22.053Z,12.48
2023-05-10T06:35:25.387Z,12.57
2023-05-10T06:38:28.562Z,12.43
2023-05-10T06:41:31.278Z,12.87
2023-05-10T06:44:34.424Z,12.69
2023-05-10T06:47:38.987Z,13.03
2023-05-10T06:50:42.157Z,12.99
2023-05-10T06:54:04.771Z,12.98
2023-05-10T06:57:16.120Z,13.21
2023-05-10T07:00:26.545Z,13.19
2023-05-10T07:03:29.231Z,13.40
2023-05-10T07:06:35.030Z,13.47
2023-05-10T07:09:37.763Z,13.58
2023-05-10T07:12:40.874Z,13.85
2023-05-10T07:15:43.659Z,14.06
2023-05-10T07:18:46.336Z,14.03
2023-05-10T07:21:49.137Z,14.48
2023-05-10T07:24:51.779Z,14.46
2023-05-10T07:27:54.384Z,14.31
2023-05-10T07:30:57.835Z,14.82
2023-05-10T07:34:00.557Z,14.63
2023-05-10T07:37:03.339Z,14.54
2023-05-10T07:40:06.844Z,13.94
2023-05-10T07:43:09.560Z,14.17
2023-05-10T07:46:12.428Z,14.62
2023-05-10T07:49:15.150Z,15.03
2023-05-10T07:52:17.856Z,15.50
2023-05-10T07:55:22.276Z,15.48
2023-05-10T07:58:25.337Z,15.60
2023-05-10T08:01:28.435Z,15.74
2023-05-10T08:04:31.331Z,15.73
2023-05-10T08:07:34.756Z,15.57
2023-05-10T08:10:37.932Z,15.86
2023-05-10T08:13:43.819Z,15.65
2023-05-10T08:16:46.505Z,16.17
2023-05-10T08:19:49.152Z,16.69
2023-05-10T08:22:52.088Z,16.16
2023-05-10T08:25:54.708Z,16.24
2023-05-10T08:28:57.363Z,16.37
2023-05-10T08:32:00.015Z,16.40
2023-05-10T08:35:06.199Z,16.40
2023-05-10T08:38:08.857Z,16.63
2023-05-10T08:41:12.474Z,16.85
2023-05-10T08:44:15.486Z,17.07
2023-05-10T08:47:19.566Z,16.78
2023-05-10T08:50:23.126Z,16.55
2023-05-10T08:53:29.130Z,17.19
2023-05-10T08:56:31.813Z,17.43
2023-05-10T08:59:34.647Z,17.63
2023-05-10T09:02:38.425Z,17.55
2023-05-10T09:05:42.672Z,17.24
2023-05-10T09:08:46.233Z,17.85
2023-05-10T09:11:49.041Z,16.93
2023-05-10T09:14:53.575Z,17.75
2023-05-10T09:17:56.660Z,17.55
2023-05-10T09:20:59.338Z,17.51
2023-05-10T09:24:05.802Z,17.81
2023-05-10T09:27:08.378Z,18.28
2023-05-10T09:30:11.565Z,18.45
2023-05-10T09:33:14.256Z,17.88
2023-05-10T09:36:17.394Z,17.16
2023-05-10T09:39:20.179Z,18.00
2023-05-10T09:42:24.462Z,18.28
2023-05-10T09:45:29.532Z,17.48
2023-05-10T09:48:32.528Z,17.06
2023-05-10T09:51:36.926Z,17.71
2023-05-10T09:54:49.128Z,17.63
2023-05-10T09:58:01.861Z,18.31
2023-05-10T10:01:04.986Z,19.02
2023-05-10T10:04:09.985Z,18.13
2023-05-10T10:07:12.759Z,18.18
2023-05-10T10:10:15.749Z,17.61
2023-05-10T10:13:18.757Z,18.01
2023-05-10T10:16:21.924Z,17.58
2023-05-10T10:19:24.676Z,18.89
2023-05-10T10:22:27.338Z,18.98
2023-05-10T10:25:30.451Z,18.10
2023-05-10T10:29:01.728Z,18.45
2023-05-10T10:32:12.211Z,18.24
2023-05-10T10:35:15.080Z,18.73
2023-05-10T10:38:18.569Z,19.77
2023-05-10T10:41:33.437Z,18.96
2023-05-10T10:44:39.143Z,19.32
2023-05-10T10:47:44.402Z,19.78
2023-05-10T10:50:50.357Z,20.16
2023-05-10T10:53:53.044Z,19.65
2023-05-10T10:57:24.604Z,19.00
2023-05-10T11:00:32.639Z,19.43
2023-05-10T11:03:35.235Z,19.91
2023-05-10T11:06:38.053Z,20.04
2023-05-10T11:09:41.529Z,18.37
2023-05-10T11:12:53.447Z,19.47
2023-05-10T11:15:56.178Z,19.88
2023-05-10T11:19:02.975Z,19.26
2023-05-10T11:22:06.019Z,19.53
2023-05-10T11:25:11.953Z,19.67
2023-05-10T11:28:14.772Z,20.59
2023-05-10T11:31:18.724Z,20.42
2023-05-10T11:34:26.075Z,20.66
2023-05-10T11:37:33.533Z,19.52
2023-05-10T11:40:37.117Z,19.58
2023-05-10T11:43:41.155Z,20.95
2023-05-10T11:46:44.121Z,21.10
2023-05-10T11:49:47.574Z,20.87
2023-05-10T11:52:54.086Z,20.41
2023-05-10T11:55:56.882Z,21.46
2023-05-10T11:58:59.810Z,19.73
2023-05-10T12:02:02.432Z,19.92
2023-05-10T12:05:06.632Z,20.97
2023-05-10T12:08:16.610Z,20.77
2023-05-10T12:11:20.513Z,20.74
2023-05-10T12:14:23.675Z,21.30
2023-05-10T12:17:29.217Z,21.96
2023-05-10T12:20:32.079Z,21.87
2023-05-10T12:23:34.725Z,22.40
2023-05-10T12:29:55.872Z,22.57
2023-05-10T12:33:10.312Z,22.36
2023-05-10T12:36:15.582Z,22.02
2023-05-10T12:39:18.173Z,20.37
2023-05-10T12:42:22.075Z,19.68
2023-05-10T12:45:27.510Z,20.65
2023-05-10T12:48:32.220Z,20.26
2023-05-10T12:51:34.738Z,20.95
2023-05-10T12:54:37.397Z,21.31
2023-05-10T12:57:40.012Z,21.55
2023-05-10T13:00:42.612Z,22.09
2023-05-10T13:03:45.427Z,22.68
2023-05-10T13:06:48.115Z,22.26
2023-05-10T13:09:53.683Z,22.23
2023-05-10T13:12:56.444Z,22.41
2023-05-10T13:15:59.085Z,22.91
2023-05-10T13:19:01.750Z,22.63
2023-05-10T13:22:04.436Z,23.80
2023-05-10T13:25:07.176Z,23.32
2023-05-10T13:28:09.807Z,24.10
2023-05-10T13:31:12.445Z,23.81
2023-05-10T13:34:15.098Z,23.37
2023-05-10T13:37:17.662Z,23.86
2023-05-10T13:40:20.486Z,23.04
2023-05-10T13:43:23.186Z,24.15
2023-05-10T13:46:25.891Z,21.51
2023-05-10T13:49:28.542Z,21.75
2023-05-10T13:52:31.297Z,20.62
2023-05-10T13:55:34.796Z,21.60
2023-05-10T13:58:37.552Z,23.22
2023-05-10T14:01:40.168Z,22.74
2023-05-10T14:04:42.793Z,22.38
2023-05-10T14:07:45.378Z,23.06
2023-05-10T14:10:48.056Z,23.09
2023-05-10T14:13:50.688Z,21.96
2023-05-10T14:16:53.361Z,20.74
2023-05-10T14:19:55.961Z,20.42
2023-05-10T14:23:00.846Z,20.44
2023-05-10T14:26:05.058Z,20.93
2023-05-10T14:29:09.946Z,22.22
2023-05-10T14:32:17.910Z,20.76
2023-05-10T14:35:22.165Z,20.74
2023-05-10T14:38:25.434Z,20.90
2023-05-10T14:41:28.982Z,21.03
2023-05-10T14:44:31.708Z,19.87
2023-05-10T14:47:34.413Z,19.78
2023-05-10T14:50:37.641Z,19.52
2023-05-10T14:53:40.315Z,19.17
2023-05-10T14:56:42.969Z,19.28
2023-05-10T14:59:45.741Z,19.31
2023-05-10T15:02:49.504Z,19.23
2023-05-10T15:05:53.167Z,19.50
2023-05-10T15:08:55.712Z,19.43
2023-05-10T15:11:58.312Z,19.05
2023-05-10T15:15:01.020Z,19.06
2023-05-10T15:18:03.861Z,18.94
2023-05-10T15:21:06.421Z,19.22
2023-05-10T15:24:09.744Z,19.48
2023-05-10T15:27:12.673Z,19.53
2023-05-10T15:30:15.622Z,19.57
2023-05-10T15:33:18.884Z,19.96
2023-05-10T15:36:21.973Z,19.96
2023-05-10T15:39:24.570Z,20.86
2023-05-10T15:42:27.167Z,20.38
2023-05-10T15:45:29.840Z,19.81
2023-05-10T15:48:32.624Z,19.90
2023-05-10T15:51:36.621Z,19.76
2023-05-10T15:54:39.888Z,19.37
2023-05-10T15:57:44.136Z,19.85
2023-05-10T16:00:46.870Z,19.38
2023-05-10T16:03:49.572Z,18.95
2023-05-10T16:06:52.386Z,19.02
2023-05-10T16:09:55.090Z,19.23
2023-05-10T16:12:57.802Z,19.19
2023-05-10T16:16:01.816Z,19.29
2023-05-10T16:19:04.738Z,19.13
2023-05-10T16:22:07.881Z,18.85
2023-05-10T16:25:12.712Z,19.07
2023-05-10T16:28:16.206Z,18.81
2023-05-10T16:31:20.159Z,18.79
2023-05-10T16:34:24.562Z,18.78
2023-05-10T16:37:28.816Z,18.81
2023-05-10T16:40:33.016Z,18.74
2023-05-10T16:43:36.916Z,18.77
2023-05-10T16:46:39.755Z,18.51
2023-05-10T16:49:42.502Z,18.43
2023-05-10T16:52:45.220Z,18.28
2023-05-10T16:55:48.001Z,18.23
2023-05-10T16:58:50.774Z,18.07
2023-05-10T17:01:54.168Z,17.86
2023-05-10T17:04:57.063Z,17.82
2023-05-10T17:08:02.795Z,17.72
2023-05-10T17:11:05.705Z,17.56
2023-05-10T17:14:08.460Z,17.43
2023-05-10T17:17:11.496Z,17.42
2023-05-10T17:20:17.302Z,17.34
2023-05-10T17:23:19.974Z,17.13
2023-05-10T17:26:22.809Z,17.04
2023-05-10T17:29:25.483Z,16.98
2023-05-10T17:32:28.235Z,16.91
2023-05-10T17:35:31.661Z,16.83
2023-05-10T17:38:34.335Z,16.74
2023-05-10T17:41:36.972Z,16.61
2023-05-10T17:44:39.660Z,16.47
2023-05-10T17:47:42.345Z,16.38
2023-05-10T17:50:45.117Z,16.28
2023-05-10T17:53:47.858Z,16.17
2023-05-10T17:56:50.496Z,16.11
2023-05-10T17:59:53.407Z,16.02
2023-05-10T18:02:56.161Z,15.93
2023-05-10T18:05:58.928Z,15.78
2023-05-10T18:09:01.681Z,15.66
2023-05-10T18:12:04.888Z,15.53
2023-05-10T18:15:08.461Z,15.30
2023-05-10T18:18:11.411Z,15.14
2023-05-10T18:21:14.309Z,14.93
2023-05-10T18:24:30.181Z,14.76
2023-05-10T18:27:40.067Z,14.54
2023-05-10T18:30:42.922Z,14.36
2023-05-10T18:33:45.659Z,14.20
2023-05-10T18:36:48.834Z,13.99
2023-05-10T18:39:51.673Z,13.67
2023-05-10T18:42:54.723Z,13.52
2023-05-10T18:45:58.027Z,13.39
2023-05-10T18:49:00.842Z,13.32
2023-05-10T18:52:03.585Z,13.15
2023-05-10T18:55:07.013Z,13.09
2023-05-10T18:58:09.886Z,12.91
2023-05-10T19:01:12.848Z,12.78
2023-05-10T19:04:15.763Z,12.72
2023-05-10T19:07:21.722Z,12.60
2023-05-10T19:10:24.731Z,12.52
2023-05-10T19:13:29.012Z,12.43
2023-05-10T19:16:31.909Z,12.28
2023-05-10T19:19:35.803Z,12.18
2023-05-10T19:25:47.597Z,11.92
2023-05-10T19:28:54.499Z,11.96
2023-05-10T19:31:57.535Z,11.97
2023-05-10T19:35:01.198Z,12.00
2023-05-10T19:38:04.066Z,11.98
2023-05-10T19:41:06.830Z,11.93
2023-05-10T19:44:09.975Z,11.95
2023-05-10T19:47:13.528Z,11.92
2023-05-10T19:50:19.533Z,11.87
2023-05-10T19:53:22.346Z,11.86
2023-05-10T19:56:27.008Z,12.00
2023-05-10T19:59:29.734Z,12.01
2023-05-10T20:02:32.383Z,12.07
2023-05-10T20:05:35.455Z,12.11
2023-05-10T20:08:38.150Z,12.10
2023-05-10T20:11:40.873Z,12.13
2023-05-10T20:14:43.724Z,12.05
2023-05-10T20:17:47.644Z,12.03
2023-05-10T20:20:57.654Z,11.92
2023-05-10T20:24:00.454Z,11.92
2023-05-10T20:27:04.713Z,11.85
2023-05-10T20:30:07.901Z,11.86
2023-05-10T20:33:10.764Z,11.86
2023-05-10T20:36:13.467Z,11.82
2023-05-10T20:39:16.249Z,11.87
2023-05-10T20:42:19.052Z,11.85
2023-05-10T20:45:21.622Z,11.79
2023-05-10T20:48:24.194Z,11.81
2023-05-10T20:51:27.225Z,11.85
2023-05-10T20:54:29.893Z,11.84
2023-05-10T20:57:32.546Z,11.84
2023-05-10T21:00:35.299Z,11.87
2023-05-10T21:03:37.880Z,11.90
2023-05-10T21:06:40.672Z,11.88
2023-05-10T21:09:43.592Z,11.80
2023-05-10T21:12:46.568Z,11.70
2023-05-10T21:15:49.314Z,11.47
2023-05-10T21:18:52.102Z,11.35
2023-05-10T21:21:56.347Z,11.23
2023-05-10T21:24:59.619Z,11.03
2023-05-10T21:28:02.237Z,10.91
2023-05-10T21:31:04.987Z,10.78
2023-05-10T21:34:07.542Z,10.67
2023-05-10T21:37:11.225Z,10.54
2023-05-10T21:40:13.967Z,10.34
2023-05-10T21:43:16.663Z,10.32
2023-05-10T21:46:19.774Z,10.21
2023-05-10T21:49:22.472Z,10.12
2023-05-10T21:52:25.055Z,10.02
2023-05-10T21:55:27.828Z,9.92
2023-05-10T21:58:30.425Z,9.85
2023-05-10T22:01:33.042Z,9.71
2023-05-10T22:04:37.073Z,9.60
2023-05-10T22:07:39.745Z,9.57
2023-05-10T22:10:42.354Z,9.45
2023-05-10T22:13:44.981Z,9.42
2023-05-10T22:16:47.649Z,9.29
2023-05-10T22:19:50.277Z,9.23
2023-05-10T22:22:55.042Z,9.17
2023-05-10T22:26:04.223Z,9.10
2023-05-10T22:29:06.823Z,9.07
2023-05-10T22:32:12.284Z,9.06
2023-05-10T22:35:14.878Z,8.89
2023-05-10T22:38:17.474Z,8.96
2023-05-10T22:41:23.536Z,8.92
2023-05-10T22:44:26.508Z,8.85
2023-05-10T22:47:29.118Z,8.87
2023-05-10T22:50:31.989Z,8.80
2023-05-10T22:53:34.584Z,8.75
2023-05-10T22:56:37.254Z,8.72
2023-05-10T22:59:39.872Z,8.69
2023-05-10T23:02:43.305Z,8.64
2023-05-10T23:05:45.984Z,8.64
2023-05-10T23:08:48.566Z,8.64
2023-05-10T23:11:51.181Z,8.65
2023-05-10T23:14:54.972Z,8.67
2023-05-10T23:18:01.155Z,8.67
2023-05-10T23:21:03.828Z,8.66
2023-05-10T23:24:08.772Z,8.65
2023-05-10T23:27:11.521Z,8.68
2023-05-10T23:30:14.234Z,8.67
2023-05-10T23:33:17.039Z,8.51
2023-05-10T23:36:21.860Z,8.49
2023-05-10T23:39:24.359Z,8.50
2023-05-10T23:42:27.009Z,8.51
2023-05-10T23:45:29.633Z,8.48
2023-05-10T23:48:32.241Z,8.55
2023-05-10T23:51:34.824Z,8.44
2023-05-10T23:54:37.644Z,8.43
2023-05-10T23:57:43.770Z,8.41
